Time;durP1;ratioP1;P1;durP2;ratioP2;P2;SDS_P1;SDS_P2;PMS_P1;PMS_P2;Temp;Humidity;BMP_temperature;BMP_pressure;BME280_temperature;BME280_humidity;BME280_pressure;Samples;Min_cycle;Max_cycle;Signal;HPM_P1;HPM_P2
2022/12/30 00:01:07;;;;;;;9.63;5.65;;;16.70;53.90;;;;;;4981932;28;20022;-67
2022/12/30 00:03:33;;;;;;;7.10;5.28;;;16.80;53.60;;;;;;4981847;28;20035;-69
2022/12/30 00:06:01;;;;;;;7.95;5.40;;;16.90;53.40;;;;;;4981864;28;20035;-68
2022/12/30 00:11:11;;;;;;;8.68;5.80;;;17.10;53.00;;;;;;4981912;28;20054;-70
2022/12/30 00:33:46;;;;;;;7.85;5.57;;;17.10;52.90;;;;;;4981550;28;20114;-68
2022/12/30 00:36:14;;;;;;;7.28;5.20;;;17.00;53.10;;;;;;4981667;28;20086;-70
2022/12/30 00:38:40;;;;;;;10.02;4.70;;;17.00;53.30;;;;;;4983891;28;20026;-68
2022/12/30 00:43:50;;;;;;;6.63;4.90;;;16.80;53.80;;;;;;4985223;28;20049;-69
2022/12/30 00:46:18;;;;;;;7.78;5.05;;;16.70;54.10;;;;;;4985136;28;20022;-69
2022/12/30 00:57:00;;;;;;;7.03;5.45;;;16.50;54.30;;;;;;4984989;28;20041;-73
2022/12/30 00:59:26;;;;;;;8.32;5.82;;;16.50;54.50;;;;;;4984759;28;20027;-69
2022/12/30 01:01:52;;;;;;;7.90;5.70;;;16.50;54.40;;;;;;4984841;28;20023;-70
2022/12/30 01:04:18;;;;;;;7.18;5.53;;;16.40;54.30;;;;;;4984757;28;20030;-70
2022/12/30 01:06:46;;;;;;;7.93;5.25;;;16.50;54.20;;;;;;4984763;28;20378;-70
2022/12/30 01:09:12;;;;;;;8.93;5.88;;;16.50;54.00;;;;;;4984536;28;20051;-67
2022/12/30 01:11:40;;;;;;;8.65;5.78;;;16.60;54.00;;;;;;4984711;28;20035;-72
2022/12/30 01:14:06;;;;;;;7.65;5.05;;;16.70;53.90;;;;;;4984575;28;20038;-70
2022/12/30 01:16:32;;;;;;;7.82;5.57;;;16.80;53.70;;;;;;4984453;28;20319;-70
2022/12/30 01:18:57;;;;;;;7.00;4.85;;;16.90;53.40;;;;;;4984425;28;20023;-69
2022/12/30 01:21:23;;;;;;;8.48;4.70;;;16.90;53.20;;;;;;4984437;28;20035;-70
2022/12/30 01:23:49;;;;;;;8.90;5.43;;;17.00;53.00;;;;;;4984423;28;20062;-72
2022/12/30 01:26:15;;;;;;;8.07;5.45;;;17.10;52.90;;;;;;4984442;28;20057;-71
2022/12/30 01:28:41;;;;;;;7.70;5.40;;;17.10;52.70;;;;;;4984297;28;20305;-70
2022/12/30 01:31:10;;;;;;;7.22;5.15;;;17.20;52.70;;;;;;4984307;28;20033;-69
2022/12/30 01:33:37;;;;;;;8.07;4.93;;;17.20;52.60;;;;;;4984245;28;20246;-70
2022/12/30 01:36:04;;;;;;;7.60;5.13;;;17.30;52.40;;;;;;4984178;28;20081;-69
2022/12/30 01:38:33;;;;;;;9.70;5.25;;;17.30;52.40;;;;;;4984160;28;20086;-69
2022/12/30 01:41:00;;;;;;;7.38;4.80;;;17.20;52.60;;;;;;4982828;28;20324;-72
2022/12/30 01:43:48;;;;;;;7.53;5.68;;;17.20;52.80;;;;;;4984025;28;20022;-70
2022/12/30 01:46:24;;;;;;;7.45;5.00;;;17.10;52.90;;;;;;4984059;28;20029;-69
2022/12/30 01:48:53;;;;;;;10.07;5.40;;;17.00;53.00;;;;;;4983628;28;20018;-70
2022/12/30 01:51:28;;;;;;;6.68;4.95;;;17.00;53.20;;;;;;4983756;28;20031;-68
2022/12/30 01:53:57;;;;;;;6.50;4.75;;;16.90;53.40;;;;;;4983900;28;20345;-68
2022/12/30 01:56:28;;;;;;;7.15;5.05;;;16.90;53.50;;;;;;4983856;28;20019;-70
2022/12/30 01:59:10;;;;;;;5.93;4.43;;;16.80;53.80;;;;;;4983712;28;20231;-69
2022/12/30 02:01:36;;;;;;;6.50;4.72;;;16.70;54.00;;;;;;4983744;28;20018;-68
2022/12/30 02:04:09;;;;;;;8.00;5.20;;;16.60;54.10;;;;;;4983747;28;20267;-65
2022/12/30 02:07:01;;;;;;;8.45;6.10;;;16.50;54.20;;;;;;4983643;28;20397;-68
2022/12/30 02:09:27;;;;;;;10.73;5.72;;;16.50;54.30;;;;;;4983427;28;20105;-69
2022/12/30 02:11:56;;;;;;;7.40;4.88;;;16.50;54.50;;;;;;4983598;28;20014;-71
2022/12/30 02:14:22;;;;;;;;;;;16.40;54.50;;;;;;4983913;28;20085;-70
2022/12/30 02:17:03;;;;;;;7.55;5.68;;;16.40;54.50;;;;;;4983488;28;19937;-69
2022/12/30 02:19:53;;;;;;;6.70;4.70;;;16.50;54.20;;;;;;4983259;28;20215;-68
2022/12/30 02:22:57;;;;;;;9.00;6.28;;;16.60;54.00;;;;;;4983359;28;20015;-70
2022/12/30 02:25:53;;;;;;;8.32;5.03;;;16.80;53.60;;;;;;4975351;28;20035;-71
2022/12/30 02:28:47;;;;;;;7.18;5.18;;;16.90;53.30;;;;;;4983273;28;20019;-72
2022/12/30 02:31:47;;;;;;;8.63;5.38;;;17.00;53.10;;;;;;4983183;28;20026;-66
2022/12/30 02:34:16;;;;;;;7.28;5.15;;;17.10;52.90;;;;;;4983215;28;20026;-66
2022/12/30 02:36:57;;;;;;;;;;;17.10;52.80;;;;;;4983513;28;20138;-68
2022/12/30 02:39:37;;;;;;;7.40;5.00;;;17.20;52.70;;;;;;4982875;28;19914;-68
2022/12/30 02:45:16;;;;;;;5.82;4.25;;;17.30;52.50;;;;;;4982897;28;20215;-69
2022/12/30 02:47:53;;;;;;;6.65;5.00;;;17.20;52.80;;;;;;4982208;28;20039;-69
2022/12/30 02:53:15;;;;;;;6.95;4.97;;;17.00;53.00;;;;;;4982762;28;20057;-68
2022/12/30 02:55:41;;;;;;;6.97;4.57;;;16.90;53.20;;;;;;4982658;28;20039;-69
2022/12/30 02:58:07;;;;;;;6.45;5.03;;;16.90;53.40;;;;;;4982649;28;20018;-71
2022/12/30 03:03:59;;;;;;;7.53;4.85;;;16.70;53.90;;;;;;4982531;28;20033;-68
2022/12/30 03:06:25;;;;;;;7.38;5.30;;;16.60;54.10;;;;;;4982298;28;20038;-72
2022/12/30 03:09:24;;;;;;;8.00;5.35;;;16.60;54.20;;;;;;4982456;28;20118;-70
2022/12/30 03:12:05;;;;;;;8.15;5.40;;;16.50;54.20;;;;;;4982311;28;20014;-70
2022/12/30 03:14:52;;;;;;;6.50;5.07;;;16.50;54.40;;;;;;4982479;28;20033;-70
2022/12/30 03:17:28;;;;;;;6.00;4.85;;;16.40;54.40;;;;;;4982322;28;20027;-70
2022/12/30 03:19:59;;;;;;;7.45;5.60;;;16.40;54.40;;;;;;4982286;28;20034;-68
2022/12/30 03:28:02;;;;;;;5.35;4.22;;;16.60;54.00;;;;;;4982113;28;20050;-69
2022/12/30 03:30:29;;;;;;;6.47;4.73;;;16.70;53.80;;;;;;4982242;28;20033;-69
2022/12/30 03:32:55;;;;;;;7.28;4.82;;;16.80;53.50;;;;;;4982157;28;20029;-70
2022/12/30 03:35:24;;;;;;;5.82;4.68;;;16.90;53.20;;;;;;4982126;28;20094;-70
2022/12/30 03:37:54;;;;;;;6.80;4.82;;;17.00;53.10;;;;;;4982200;28;20054;-70
2022/12/30 03:40:37;;;;;;;6.38;4.82;;;17.10;53.00;;;;;;4981979;28;20058;-69
2022/12/30 03:43:05;;;;;;;7.80;4.78;;;17.10;52.90;;;;;;4982080;28;20030;-71
2022/12/30 03:45:31;;;;;;;8.13;5.20;;;17.10;52.90;;;;;;4982074;28;20015;-69
2022/12/30 03:47:57;;;;;;;6.28;4.68;;;17.10;52.80;;;;;;4981925;28;20027;-71
2022/12/30 03:50:23;;;;;;;8.93;5.18;;;17.10;52.80;;;;;;4982057;28;20026;-72
2022/12/30 03:52:49;;;;;;;9.60;5.03;;;17.10;52.80;;;;;;4982009;28;20113;-70
2022/12/30 03:55:15;;;;;;;7.88;5.22;;;17.10;53.60;;;;;;4981959;28;20386;-70
2022/12/30 03:57:41;;;;;;;7.70;5.18;;;17.00;53.10;;;;;;4981971;28;20085;-71
2022/12/30 04:00:10;;;;;;;6.82;4.80;;;16.90;53.20;;;;;;4981906;28;20322;-70
2022/12/30 04:02:38;;;;;;;7.82;5.13;;;16.90;53.40;;;;;;4981907;28;20034;-70
2022/12/30 04:05:05;;;;;;;7.15;5.18;;;16.80;53.80;;;;;;4981880;28;20053;-70
2022/12/30 04:07:32;;;;;;;7.60;5.00;;;16.70;53.80;;;;;;4981906;28;20074;-72
2022/12/30 04:09:57;;;;;;;6.32;4.65;;;16.70;54.00;;;;;;4981702;28;20079;-71
2022/12/30 04:12:23;;;;;;;7.45;5.10;;;16.60;54.20;;;;;;4982161;28;20078;-71
2022/12/30 04:14:49;;;;;;;7.35;5.00;;;16.60;54.20;;;;;;4985575;28;20026;-70
2022/12/30 04:17:15;;;;;;;6.28;4.50;;;16.50;54.30;;;;;;4985633;28;20109;-70
2022/12/30 04:19:41;;;;;;;6.53;5.25;;;16.50;54.40;;;;;;4985607;28;20138;-70
2022/12/30 04:22:06;;;;;;;6.28;4.85;;;16.50;54.40;;;;;;4985537;28;20022;-71
2022/12/30 04:24:32;;;;;;;6.43;4.60;;;16.50;54.40;;;;;;4985483;28;20027;-68
2022/12/30 04:26:58;;;;;;;7.97;5.38;;;16.40;54.50;;;;;;4985465;28;20042;-70
2022/12/30 04:29:24;;;;;;;6.75;4.95;;;16.50;54.20;;;;;;4985375;28;20026;-70
2022/12/30 04:31:50;;;;;;;7.40;5.00;;;16.60;54.20;;;;;;4985390;28;20030;-68
2022/12/30 04:34:15;;;;;;;6.75;4.85;;;16.60;54.00;;;;;;4985292;28;20042;-69
2022/12/30 04:36:42;;;;;;;7.47;5.30;;;16.70;53.80;;;;;;4985297;28;20077;-70
2022/12/30 04:39:08;;;;;;;6.38;4.53;;;16.80;53.50;;;;;;4985301;28;20026;-71
2022/12/30 04:41:34;;;;;;;6.32;4.63;;;17.00;53.30;;;;;;4985278;28;20030;-72
2022/12/30 04:44:04;;;;;;;6.88;5.00;;;17.00;53.00;;;;;;4983883;28;20022;-71
2022/12/30 04:46:29;;;;;;;8.95;6.05;;;17.10;53.00;;;;;;4985113;28;20035;-69
2022/12/30 04:48:55;;;;;;;11.10;5.05;;;17.10;53.00;;;;;;4984973;28;20026;-69
2022/12/30 04:51:22;;;;;;;6.80;4.85;;;17.10;52.90;;;;;;4985088;28;20031;-68
2022/12/30 04:53:47;;;;;;;6.18;4.85;;;17.20;52.80;;;;;;4984951;28;20019;-69
2022/12/30 04:56:13;;;;;;;7.32;4.75;;;17.20;52.80;;;;;;4985036;28;20257;-69
2022/12/30 04:58:39;;;;;;;7.88;5.68;;;17.20;52.80;;;;;;4984851;28;20019;-71
2022/12/30 05:01:05;;;;;;;6.28;4.43;;;17.30;52.70;;;;;;4984861;28;20238;-70
2022/12/30 05:03:31;;;;;;;6.30;5.10;;;17.30;52.70;;;;;;4984864;28;20029;-69
2022/12/30 05:05:57;;;;;;;7.28;5.32;;;17.20;52.70;;;;;;4984896;28;20030;-70
2022/12/30 05:08:23;;;;;;;6.53;5.05;;;17.10;52.90;;;;;;4984503;28;20367;-70
2022/12/30 05:10:49;;;;;;;6.88;4.90;;;17.10;52.90;;;;;;4984668;28;20065;-70
2022/12/30 05:13:15;;;;;;;7.72;4.95;;;17.10;53.10;;;;;;4984662;28;20371;-70
2022/12/30 05:15:41;;;;;;;6.68;5.07;;;17.00;53.30;;;;;;4984569;28;20034;-71
2022/12/30 05:18:07;;;;;;;7.35;5.47;;;16.90;53.50;;;;;;4967159;28;20031;-71
2022/12/30 05:20:33;;;;;;;6.72;4.88;;;16.80;53.60;;;;;;4984497;28;20023;-71
2022/12/30 05:22:59;;;;;;;6.28;4.80;;;16.80;53.90;;;;;;4984470;28;20033;-70
2022/12/30 05:28:09;;;;;;;7.25;5.07;;;16.70;54.10;;;;;;4984382;28;20026;-70
2022/12/30 05:30:35;;;;;;;7.57;5.57;;;16.60;54.20;;;;;;4984315;28;20090;-70
2022/12/30 05:33:00;;;;;;;7.50;4.95;;;16.60;54.40;;;;;;4984125;28;20034;-72
2022/12/30 05:35:26;;;;;;;6.88;4.55;;;16.50;54.40;;;;;;4984179;28;20030;-70
2022/12/30 05:37:52;;;;;;;8.52;4.70;;;16.50;54.50;;;;;;4984158;28;20038;-69
2022/12/30 05:40:18;;;;;;;7.50;5.13;;;16.50;54.50;;;;;;4984051;28;20353;-70
2022/12/30 05:42:43;;;;;;;7.15;5.15;;;16.50;54.50;;;;;;4984131;28;20361;-71
2022/12/30 05:45:10;;;;;;;6.32;4.57;;;16.50;54.30;;;;;;4984013;28;20296;-70
2022/12/30 05:47:36;;;;;;;6.35;4.85;;;16.50;54.20;;;;;;4983976;28;20033;-70
2022/12/30 05:50:02;;;;;;;5.65;4.57;;;16.70;53.90;;;;;;4982620;28;20027;-70
2022/12/30 05:52:29;;;;;;;7.13;5.07;;;16.80;53.60;;;;;;4983889;28;20052;-67
2022/12/30 05:54:55;;;;;;;6.13;4.43;;;16.90;53.30;;;;;;4983802;28;20094;-71
2022/12/30 05:57:21;;;;;;;5.65;4.47;;;17.00;53.20;;;;;;4983879;28;20035;-71
2022/12/30 05:59:47;;;;;;;5.72;4.88;;;17.10;53.10;;;;;;4983720;28;20361;-70
2022/12/30 06:02:13;;;;;;;7.55;4.78;;;17.10;53.00;;;;;;4983828;28;20081;-71
2022/12/30 06:04:38;;;;;;;7.32;5.25;;;17.10;53.00;;;;;;4983733;28;20015;-70
2022/12/30 06:07:04;;;;;;;6.43;4.70;;;17.10;52.90;;;;;;4983709;28;20278;-69
2022/12/30 06:09:30;;;;;;;8.02;4.93;;;17.10;53.10;;;;;;4983469;28;20058;-69
2022/12/30 06:11:56;;;;;;;9.00;5.10;;;17.10;53.10;;;;;;4983599;28;20322;-71
2022/12/30 06:14:22;;;;;;;6.10;4.55;;;17.00;53.20;;;;;;4983471;28;20034;-69
2022/12/30 06:16:48;;;;;;;7.60;4.90;;;17.00;53.40;;;;;;4983505;28;20067;-69
2022/12/30 06:19:14;;;;;;;6.07;4.90;;;16.90;53.50;;;;;;4983203;28;20371;-71
2022/12/30 06:21:40;;;;;;;8.75;5.22;;;16.90;53.40;;;;;;4983420;28;20027;-68
2022/12/30 06:24:06;;;;;;;7.10;4.68;;;16.90;53.40;;;;;;4983253;28;20325;-70
2022/12/30 06:26:32;;;;;;;6.03;4.80;;;16.80;53.50;;;;;;4983366;28;20061;-69
2022/12/30 06:28:57;;;;;;;7.32;4.68;;;16.70;53.70;;;;;;4983126;28;20311;-68
2022/12/30 06:31:23;;;;;;;7.35;4.78;;;16.70;53.90;;;;;;4983263;28;20030;-70
2022/12/30 06:33:49;;;;;;;6.15;4.60;;;16.70;54.10;;;;;;4983105;28;20417;-69
2022/12/30 06:36:15;;;;;;;6.15;4.78;;;16.60;54.20;;;;;;4982946;28;20027;-71
2022/12/30 06:38:41;;;;;;;6.00;4.72;;;16.60;54.20;;;;;;4983106;28;20050;-69
2022/12/30 06:41:07;;;;;;;6.25;4.82;;;16.50;54.30;;;;;;4982878;28;20026;-70
2022/12/30 06:43:34;;;;;;;7.45;5.25;;;16.40;54.40;;;;;;4974967;28;20027;-71
2022/12/30 06:45:59;;;;;;;7.22;5.43;;;16.40;54.40;;;;;;4983026;28;20019;-69
2022/12/30 06:48:26;;;;;;;7.07;4.93;;;16.50;54.20;;;;;;4982942;28;20030;-70
2022/12/30 06:50:59;;;;;;;6.20;4.40;;;16.50;54.10;;;;;;4982917;28;20030;-70
2022/12/30 06:53:27;;;;;;;6.28;4.55;;;16.60;54.00;;;;;;4982825;28;20023;-71
2022/12/30 06:55:55;;;;;;;6.40;4.55;;;16.70;53.90;;;;;;4982834;28;20389;-69
2022/12/30 06:58:21;;;;;;;7.78;4.82;;;16.80;53.70;;;;;;4982694;28;20039;-70
2022/12/30 07:00:48;;;;;;;7.32;4.90;;;16.90;53.40;;;;;;4982528;28;20032;-70
2022/12/30 07:03:14;;;;;;;6.80;5.18;;;17.00;52.90;;;;;;4982644;28;20027;-67
2022/12/30 07:05:39;;;;;;;8.15;5.00;;;17.10;52.70;;;;;;4983060;28;20054;-68
2022/12/30 07:08:05;;;;;;;7.45;4.80;;;17.20;52.70;;;;;;4982344;28;20247;-70
2022/12/30 07:10:32;;;;;;;6.80;5.28;;;17.20;52.80;;;;;;4982525;28;20026;-69
2022/12/30 07:12:58;;;;;;;8.48;4.93;;;17.20;52.80;;;;;;4982524;28;20019;-68
2022/12/30 07:15:24;;;;;;;6.38;4.70;;;17.10;52.90;;;;;;4982505;28;20561;-68
2022/12/30 07:17:50;;;;;;;7.10;4.70;;;17.10;53.00;;;;;;4982427;28;20034;-68
2022/12/30 07:20:15;;;;;;;7.13;4.60;;;17.00;53.00;;;;;;4982307;28;20082;-68
2022/12/30 07:22:44;;;;;;;6.95;5.03;;;17.00;53.20;;;;;;4982401;28;20053;-69
2022/12/30 07:25:10;;;;;;;7.07;5.45;;;16.90;53.30;;;;;;4982320;28;20270;-67
2022/12/30 07:27:36;;;;;;;6.53;5.00;;;16.90;53.30;;;;;;4982348;28;20086;-68
2022/12/30 07:30:03;;;;;;;6.95;5.13;;;16.90;53.40;;;;;;4982378;28;20077;-69
2022/12/30 07:32:29;;;;;;;7.25;5.10;;;16.80;53.50;;;;;;4982263;28;20031;-68
2022/12/30 07:34:55;;;;;;;6.93;5.10;;;16.80;53.60;;;;;;4982279;28;20054;-68
2022/12/30 07:37:21;;;;;;;6.85;5.18;;;16.70;53.60;;;;;;4982120;28;20111;-68
2022/12/30 07:39:47;;;;;;;6.88;4.85;;;16.70;53.90;;;;;;4981992;28;20353;-70
2022/12/30 07:42:13;;;;;;;7.30;4.90;;;16.60;54.00;;;;;;4982223;28;20022;-69
2022/12/30 07:44:39;;;;;;;6.75;4.82;;;16.60;54.20;;;;;;4982099;28;20026;-68
2022/12/30 07:47:05;;;;;;;7.63;4.82;;;16.50;54.20;;;;;;4981546;28;20037;-70
2022/12/30 07:49:31;;;;;;;6.60;4.50;;;16.50;54.30;;;;;;4981929;28;20050;-71
2022/12/30 07:51:57;;;;;;;7.68;5.00;;;16.50;54.40;;;;;;4981980;28;20057;-69
2022/12/30 07:54:23;;;;;;;6.55;4.28;;;16.50;54.30;;;;;;4981973;28;20323;-69
2022/12/30 07:56:49;;;;;;;6.97;4.55;;;16.50;54.20;;;;;;4981924;28;20035;-70
2022/12/30 07:59:14;;;;;;;7.68;5.43;;;16.60;54.10;;;;;;4981854;28;20090;-67
2022/12/30 08:01:41;;;;;;;5.85;4.90;;;16.70;53.90;;;;;;4981953;28;20330;-68
2022/12/30 08:04:07;;;;;;;6.47;4.72;;;16.80;53.60;;;;;;4981942;28;20127;-70
2022/12/30 08:06:33;;;;;;;6.68;4.97;;;16.80;53.30;;;;;;4981806;28;20038;-67
2022/12/30 08:09:03;;;;;;;6.05;4.53;;;17.00;53.20;;;;;;4981728;28;20046;-68
2022/12/30 08:11:29;;;;;;;5.38;4.30;;;17.10;52.90;;;;;;4981866;28;20018;-70
2022/12/30 08:13:55;;;;;;;7.20;5.80;;;17.10;52.80;;;;;;4981910;28;20235;-68
2022/12/30 08:16:20;;;;;;;5.47;4.72;;;17.20;52.60;;;;;;4981872;28;20031;-70
2022/12/30 08:18:46;;;;;;;5.47;4.43;;;17.30;52.60;;;;;;4981817;28;20026;-69
2022/12/30 08:21:15;;;;;;;5.38;4.45;;;17.30;52.50;;;;;;4981694;28;20019;-69
2022/12/30 08:23:44;;;;;;;6.72;4.80;;;17.20;52.70;;;;;;4981839;28;20393;-67
2022/12/30 08:26:16;;;;;;;6.20;4.80;;;17.20;53.00;;;;;;4981811;28;20499;-69
2022/12/30 08:28:42;;;;;;;6.25;5.05;;;17.10;53.10;;;;;;4980460;28;20114;-71
2022/12/30 08:31:29;;;;;;;6.43;4.95;;;17.00;53.10;;;;;;4964406;28;20035;-68
2022/12/30 08:33:55;;;;;;;6.57;4.72;;;17.00;53.30;;;;;;4981276;28;20054;-69
2022/12/30 08:36:24;;;;;;;6.85;5.47;;;17.00;53.30;;;;;;4981690;28;20023;-69
2022/12/30 08:38:54;;;;;;;6.07;4.78;;;17.00;53.30;;;;;;4981602;28;20031;-70
2022/12/30 08:41:31;;;;;;;6.60;5.20;;;16.90;53.30;;;;;;4981642;28;20081;-69
2022/12/30 08:43:58;;;;;;;5.80;4.67;;;16.90;53.40;;;;;;4981694;28;20019;-70
2022/12/30 08:46:25;;;;;;;6.75;4.80;;;16.80;53.50;;;;;;4981553;28;20027;-70
2022/12/30 08:48:51;;;;;;;6.75;4.82;;;16.80;53.70;;;;;;4981513;28;20023;-70
2022/12/30 08:51:17;;;;;;;6.10;4.40;;;16.70;53.70;;;;;;4981481;28;20089;-68
2022/12/30 08:53:43;;;;;;;6.38;4.72;;;16.70;53.60;;;;;;4981522;28;20105;-69
2022/12/30 08:56:21;;;;;;;5.32;4.82;;;16.70;53.70;;;;;;4981620;28;20027;-70
2022/12/30 08:58:48;;;;;;;7.15;4.97;;;16.70;53.70;;;;;;4981510;28;20026;-69
2022/12/30 09:01:25;;;;;;;7.32;4.97;;;16.70;53.70;;;;;;4984411;28;20057;-70
2022/12/30 09:03:51;;;;;;;6.93;4.55;;;16.70;53.70;;;;;;4984857;28;20019;-70
2022/12/30 09:06:20;;;;;;;7.30;5.30;;;16.70;53.70;;;;;;4983533;28;20050;-71
2022/12/30 09:08:46;;;;;;;5.32;4.65;;;16.70;53.60;;;;;;4978178;28;20133;-70
2022/12/30 09:11:16;;;;;;;5.78;4.57;;;16.70;53.60;;;;;;4984667;28;20035;-68
2022/12/30 09:13:42;;;;;;;6.72;4.90;;;16.70;53.70;;;;;;4984610;28;20113;-68
2022/12/30 09:16:14;;;;;;;6.57;4.68;;;16.70;53.60;;;;;;4984635;28;20203;-69
2022/12/30 09:18:40;;;;;;;6.85;4.82;;;16.80;53.70;;;;;;4984656;28;20023;-71
2022/12/30 09:21:06;;;;;;;6.47;4.60;;;16.80;53.60;;;;;;4984474;28;20089;-69
2022/12/30 09:23:32;;;;;;;6.80;4.63;;;16.80;53.40;;;;;;4984557;28;20532;-68
2022/12/30 09:25:58;;;;;;;7.55;5.00;;;16.90;53.30;;;;;;4984472;28;20061;-69
2022/12/30 09:28:24;;;;;;;7.22;4.63;;;17.00;53.20;;;;;;4984084;28;20070;-70
2022/12/30 09:30:50;;;;;;;6.93;4.93;;;17.10;53.00;;;;;;4984322;28;20015;-71
2022/12/30 09:33:16;;;;;;;7.13;5.15;;;17.10;52.90;;;;;;4984281;28;20650;-68
2022/12/30 09:35:42;;;;;;;6.03;4.18;;;17.30;52.80;;;;;;4984263;28;20026;-69
2022/12/30 09:38:08;;;;;;;6.57;4.90;;;17.40;52.50;;;;;;4984226;28;20034;-69
2022/12/30 09:40:34;;;;;;;5.97;4.53;;;17.40;52.50;;;;;;4984199;28;20015;-69
2022/12/30 09:43:15;;;;;;;6.00;4.72;;;17.40;52.40;;;;;;4984097;28;20026;-68
2022/12/30 09:45:47;;;;;;;6.35;4.47;;;17.40;52.50;;;;;;4984225;28;20214;-72
2022/12/30 09:48:23;;;;;;;6.03;4.75;;;17.40;52.70;;;;;;4984117;28;20058;-68
2022/12/30 09:50:55;;;;;;;6.88;4.50;;;17.40;52.70;;;;;;4984006;28;20214;-69
2022/12/30 09:53:36;;;;;;;7.13;4.95;;;17.30;52.70;;;;;;4983866;28;20023;-69
2022/12/30 09:56:11;;;;;;;6.63;4.90;;;17.30;52.80;;;;;;4983844;28;20081;-70
2022/12/30 09:58:37;;;;;;;6.60;5.30;;;17.30;52.90;;;;;;4983783;28;20093;-70
2022/12/30 10:01:37;;;;;;;5.95;5.05;;;17.30;53.00;;;;;;4983531;28;20045;-68
2022/12/30 10:04:03;;;;;;;6.88;4.60;;;17.20;53.00;;;;;;4982440;28;20078;-68
2022/12/30 10:06:32;;;;;;;5.75;4.45;;;17.20;53.10;;;;;;4983558;28;20254;-68
2022/12/30 10:09:32;;;;;;;5.65;4.38;;;17.20;53.20;;;;;;4983239;28;20283;-68
2022/12/30 10:12:13;;;;;;;6.75;4.53;;;17.20;53.30;;;;;;4983005;28;20427;-69
2022/12/30 10:14:48;;;;;;;5.78;4.30;;;17.10;53.40;;;;;;4983460;28;20026;-70
2022/12/30 10:17:28;;;;;;;6.22;4.68;;;17.10;53.60;;;;;;4983435;28;20094;-68
2022/12/30 10:20:20;;;;;;;6.55;4.88;;;17.10;53.70;;;;;;4982122;28;20031;-71
2022/12/30 10:22:51;;;;;;;5.93;4.68;;;17.00;53.90;;;;;;4983296;28;20033;-69
2022/12/30 10:25:35;;;;;;;5.68;4.32;;;17.00;53.80;;;;;;4983269;28;20057;-69
2022/12/30 10:28:02;;;;;;;7.63;4.85;;;17.00;53.80;;;;;;4983264;28;20065;-69
2022/12/30 10:30:48;;;;;;;5.85;4.82;;;17.00;54.00;;;;;;4983175;28;20027;-70
2022/12/30 10:33:20;;;;;;;5.85;4.53;;;17.00;53.80;;;;;;4981638;28;20065;-69
2022/12/30 10:35:56;;;;;;;6.13;5.05;;;17.00;53.90;;;;;;4983051;28;20041;-69
2022/12/30 10:38:28;;;;;;;6.65;4.75;;;17.10;54.00;;;;;;4983008;28;20023;-68
2022/12/30 10:41:19;;;;;;;7.43;5.07;;;17.00;54.00;;;;;;4982881;28;20559;-70
2022/12/30 10:44:09;;;;;;;6.65;4.88;;;17.10;54.00;;;;;;4982900;28;20323;-68
2022/12/30 10:46:40;;;;;;;4.57;4.00;;;17.10;53.90;;;;;;4982803;28;20226;-67
2022/12/30 10:49:36;;;;;;;23.42;11.18;;;17.00;53.90;;;;;;4982872;28;20085;-71
2022/12/30 10:52:03;;;;;;;38.67;9.55;;;16.80;52.60;;;;;;4982842;28;20014;-69
2022/12/30 10:54:29;;;;;;;17.38;6.53;;;16.80;54.10;;;;;;4982769;28;20042;-67
2022/12/30 10:56:55;;;;;;;20.67;6.05;;;17.00;54.10;;;;;;4982777;28;20035;-68
2022/12/30 10:59:25;;;;;;;15.60;6.85;;;17.30;53.60;;;;;;4982651;28;20022;-68
2022/12/30 11:01:58;;;;;;;16.88;6.93;;;17.40;53.70;;;;;;4982608;28;20302;-68
2022/12/30 11:04:41;;;;;;;20.75;6.25;;;17.50;53.10;;;;;;4982618;28;20022;-66
2022/12/30 11:07:11;;;;;;;19.77;6.35;;;17.60;53.00;;;;;;4982660;28;20361;-69
2022/12/30 11:09:38;;;;;;;24.83;6.55;;;17.70;53.30;;;;;;4982345;28;20121;-67
2022/12/30 11:15:02;;;;;;;41.60;8.70;;;17.70;53.60;;;;;;4982475;28;20070;-71
2022/12/30 11:17:49;;;;;;;30.40;6.88;;;17.80;54.60;;;;;;4982412;28;20023;-68
2022/12/30 11:20:32;;;;;;;20.52;7.10;;;17.80;53.60;;;;;;4982054;28;20047;-69
2022/12/30 11:23:00;;;;;;;18.08;6.55;;;17.90;53.40;;;;;;4981496;28;20034;-70
2022/12/30 11:25:30;;;;;;;18.40;5.93;;;18.00;53.10;;;;;;4982296;28;20090;-69
2022/12/30 11:28:02;;;;;;;201.93;20.02;;;18.00;53.80;;;;;;4982136;28;20323;-71
2022/12/30 11:30:30;;;;;;;63.40;10.57;;;18.00;53.10;;;;;;4982264;28;20022;-73
2022/12/30 11:32:58;;;;;;;38.97;7.15;;;18.00;53.90;;;;;;4982270;28;20045;-69
2022/12/30 11:35:44;;;;;;;216.77;19.07;;;18.10;53.70;;;;;;4982264;28;20030;-69
2022/12/30 11:38:40;;;;;;;64.30;10.00;;;18.10;53.80;;;;;;4982237;28;20299;-72
2022/12/30 11:41:18;;;;;;;60.47;11.18;;;18.20;53.60;;;;;;4976876;28;20362;-67
2022/12/30 11:43:50;;;;;;;45.63;8.88;;;18.20;52.80;;;;;;4982105;28;20043;-67
2022/12/30 11:46:23;;;;;;;37.28;9.27;;;18.20;53.70;;;;;;4982097;28;20314;-71
2022/12/30 11:48:54;;;;;;;52.22;9.95;;;18.30;53.60;;;;;;4982080;28;20045;-68
2022/12/30 11:51:27;;;;;;;43.80;8.80;;;18.30;53.30;;;;;;4981985;28;20026;-68
2022/12/30 11:54:04;;;;;;;74.85;12.32;;;18.30;54.00;;;;;;4981905;28;20074;-68
2022/12/30 11:56:30;;;;;;;59.67;10.50;;;18.30;53.70;;;;;;4981913;28;20092;-67
2022/12/30 11:59:05;;;;;;;39.67;9.55;;;18.40;53.90;;;;;;4981838;28;20404;-67
2022/12/30 12:01:46;;;;;;;42.97;10.65;;;18.40;53.80;;;;;;4981888;28;20445;-68
2022/12/30 12:04:38;;;;;;;65.38;10.20;;;18.50;53.70;;;;;;4981822;28;20090;-67
2022/12/30 12:07:26;;;;;;;47.92;9.30;;;18.50;53.80;;;;;;4980624;28;20291;-71
2022/12/30 12:10:13;;;;;;;42.75;9.93;;;18.60;53.30;;;;;;4981335;28;20058;-67
2022/12/30 12:13:03;;;;;;;46.28;10.10;;;18.60;53.60;;;;;;4981787;28;20035;-68
2022/12/30 12:15:38;;;;;;;37.60;10.07;;;18.60;53.50;;;;;;4981111;28;20043;-68
2022/12/30 12:18:15;;;;;;;36.63;9.60;;;18.60;53.60;;;;;;4981776;28;20033;-68
2022/12/30 12:20:51;;;;;;;50.10;10.18;;;18.60;53.60;;;;;;4981618;28;20042;-66
2022/12/30 12:23:23;;;;;;;38.13;9.77;;;18.70;53.50;;;;;;4981590;28;20027;-66
2022/12/30 12:26:03;;;;;;;38.53;10.27;;;18.70;53.30;;;;;;4981530;28;20034;-67
2022/12/30 12:28:30;;;;;;;32.67;9.18;;;18.70;53.80;;;;;;4981604;28;20018;-68
2022/12/30 12:31:20;;;;;;;40.05;9.95;;;18.80;53.80;;;;;;4981593;28;20262;-68
2022/12/30 12:34:11;;;;;;;49.42;9.07;;;18.70;54.70;;;;;;4982544;28;20094;-65
2022/12/30 12:37:07;;;;;;;37.83;8.25;;;18.70;54.70;;;;;;4984039;28;20082;-66
2022/12/30 12:40:01;;;;;;;32.72;9.23;;;18.70;55.00;;;;;;4985089;28;20242;-66
2022/12/30 12:43:09;;;;;;;48.08;8.90;;;18.80;54.60;;;;;;4983884;28;20266;-65
2022/12/30 12:46:00;;;;;;;52.63;9.55;;;18.80;54.20;;;;;;4974553;28;20033;-66
2022/12/30 12:48:55;;;;;;;36.47;8.95;;;18.90;54.30;;;;;;4984898;28;20027;-66
2022/12/30 12:51:39;;;;;;;53.00;12.18;;;18.90;54.70;;;;;;4984921;28;20085;-66
2022/12/30 12:54:23;;;;;;;67.32;9.13;;;18.80;55.00;;;;;;4984869;28;20029;-68
2022/12/30 12:57:01;;;;;;;45.15;8.80;;;18.90;54.60;;;;;;4984703;28;20038;-66
2022/12/30 12:59:34;;;;;;;44.13;9.60;;;18.90;54.40;;;;;;4984781;28;20262;-68
2022/12/30 13:02:33;;;;;;;71.25;10.95;;;18.90;55.50;;;;;;4984799;28;20019;-67
2022/12/30 13:05:22;;;;;;;81.82;11.63;;;18.90;54.90;;;;;;4984707;28;20027;-66
2022/12/30 13:08:06;;;;;;;102.97;15.15;;;18.90;55.10;;;;;;4983526;28;20134;-69
2022/12/30 13:10:35;;;;;;;248.25;26.77;;;18.90;55.70;;;;;;4984598;28;20380;-69
2022/12/30 13:13:27;;;;;;;171.70;23.98;;;18.90;55.50;;;;;;4983361;28;20277;-68
2022/12/30 13:16:17;;;;;;;191.25;21.73;;;18.90;55.50;;;;;;4984574;28;20034;-67
2022/12/30 13:18:45;;;;;;;175.38;21.70;;;18.90;55.70;;;;;;4984432;28;20428;-68
2022/12/30 13:21:16;;;;;;;167.25;21.63;;;19.00;56.20;;;;;;4984391;28;20065;-68
2022/12/30 13:23:47;;;;;;;145.43;20.33;;;19.00;56.10;;;;;;4984500;28;20041;-68
2022/12/30 13:26:13;;;;;;;164.88;22.98;;;19.00;55.80;;;;;;4984332;28;20023;-68
2022/12/30 14:21:11;;;;;;;135.07;21.90;;;17.60;64.30;;;;;;5140277;27;20398;-70
2022/12/30 14:23:57;;;;;;;113.53;18.95;;;18.20;61.70;;;;;;5140183;28;20090;-71
2022/12/30 14:26:26;;;;;;;131.80;20.17;;;18.40;60.00;;;;;;5140059;28;20364;-67
2022/12/30 14:29:23;;;;;;;118.15;19.17;;;18.60;61.90;;;;;;5139918;28;20074;-66
2022/12/30 14:31:54;;;;;;;105.97;19.65;;;18.70;60.00;;;;;;5139502;28;20035;-71
2022/12/30 14:34:35;;;;;;;103.60;16.75;;;18.70;59.90;;;;;;5139922;28;20046;-67
2022/12/30 14:37:27;;;;;;;152.15;23.95;;;18.80;60.00;;;;;;5139910;28;20210;-72
2022/12/30 14:46:41;;;;;;;112.15;20.88;;;18.90;63.20;;;;;;5184137;22;20061;-68
2022/12/30 14:49:37;;;;;;;116.35;20.00;;;19.00;63.10;;;;;;5058280;28;20320;-67
2022/12/30 14:52:12;;;;;;;93.22;20.17;;;18.90;63.50;;;;;;5058062;28;20044;-67
2022/12/30 14:55:07;;;;;;;101.15;24.45;;;18.80;64.60;;;;;;5056979;28;20013;-68
2022/12/30 14:57:38;;;;;;;109.80;28.02;;;18.50;60.90;;;;;;5058064;28;20021;-69
2022/12/30 15:00:10;;;;;;;88.97;21.23;;;17.80;58.00;;;;;;5058059;28;20127;-69